Time;durP1;ratioP1;P1;durP2;ratioP2;P2;SDS_P1;SDS_P2;PMS_P1;PMS_P2;Temp;Humidity;BMP_temperature;BMP_pressure;BME280_temperature;BME280_humidity;BME280_pressure;Samples;Min_cycle;Max_cycle;Signal;HPM_P1;HPM_P2
2022/05/09 00:02:08;;;;;;;27.48;8.30;;;;;;;13.80;69.13;99053.38;5074935;28;20033;-91
2022/05/09 00:04:35;;;;;;;17.60;7.80;;;;;;;13.59;69.44;99031.81;5074415;28;20037;-94
2022/05/09 00:07:02;;;;;;;23.55;8.13;;;;;;;13.67;69.63;99053.78;5075516;28;20045;-93
2022/05/09 00:09:28;;;;;;;24.48;8.48;;;;;;;13.55;69.82;99039.09;5075883;28;20059;-92
2022/05/09 00:11:54;;;;;;;24.75;8.50;;;;;;;13.56;70.35;99045.28;5074320;28;20127;-94
2022/05/09 00:14:20;;;;;;;18.27;7.68;;;;;;;13.48;71.61;99060.72;5072185;28;20036;-92
2022/05/09 00:16:46;;;;;;;23.60;8.45;;;;;;;13.33;71.78;99051.41;5074861;28;20044;-93
2022/05/09 00:19:17;;;;;;;20.83;7.80;;;;;;;13.26;72.75;99049.84;5075358;28;20040;-92
2022/05/09 00:21:43;;;;;;;23.65;8.45;;;;;;;13.22;74.04;99056.22;5074294;28;20060;-92
2022/05/09 00:24:14;;;;;;;18.95;8.40;;;;;;;13.00;74.47;99045.38;5074346;28;20052;-91
2022/05/09 00:26:41;;;;;;;22.98;8.32;;;;;;;12.90;74.23;99036.78;5073987;28;20064;-93
2022/05/09 00:29:08;;;;;;;25.08;9.30;;;;;;;12.84;75.42;99050.34;5074907;28;20514;-91
2022/05/09 00:31:35;;;;;;;23.70;8.38;;;;;;;12.77;75.68;99038.09;5074651;28;20051;-92
2022/05/09 00:34:00;;;;;;;30.15;8.85;;;;;;;12.68;76.54;99034.78;5074368;28;20078;-92
2022/05/09 00:36:26;;;;;;;20.38;8.35;;;;;;;12.76;75.18;99049.69;5074494;28;20032;-92
2022/05/09 00:38:52;;;;;;;21.42;8.45;;;;;;;12.77;77.23;99060.31;5073372;28;20036;-93
2022/05/09 00:44:22;;;;;;;18.88;8.30;;;;;;;12.87;75.12;99055.56;5088224;27;20379;-92
2022/05/09 00:46:51;;;;;;;22.50;8.70;;;;;;;12.89;75.31;99059.94;5089937;28;20162;-92
2022/05/09 00:49:21;;;;;;;20.90;8.80;;;;;;;12.78;75.84;99055.88;5089883;28;20032;-92
2022/05/09 00:51:52;;;;;;;22.33;8.90;;;;;;;12.73;75.84;99048.88;5089260;28;20058;-92
2022/05/09 00:54:18;;;;;;;24.95;9.32;;;;;;;12.72;76.27;99056.91;5089864;28;20119;-91
2022/05/09 00:56:51;;;;;;;24.73;9.65;;;;;;;12.59;77.23;99055.56;5089362;28;20126;-92
2022/05/09 00:59:19;;;;;;;21.30;9.25;;;;;;;12.67;76.87;99066.88;5087357;28;20145;-91
2022/05/09 01:01:47;;;;;;;20.35;8.57;;;;;;;12.52;77.58;99047.72;5089991;28;20048;-93
2022/05/09 01:04:16;;;;;;;24.42;8.85;;;;;;;12.32;78.96;99048.34;5088405;28;20040;-93
2022/05/09 01:06:42;;;;;;;20.63;9.30;;;;;;;12.26;79.53;99061.84;5089501;28;20406;-93
2022/05/09 01:09:10;;;;;;;27.80;9.48;;;;;;;12.06;81.72;99070.44;5089665;28;20397;-92
2022/05/09 01:11:37;;;;;;;18.10;9.07;;;;;;;11.97;81.35;99068.03;5089327;28;20052;-91
2022/05/09 01:14:08;;;;;;;18.48;9.35;;;;;;;12.02;81.51;99060.75;5087296;28;20064;-92
2022/05/09 01:16:34;;;;;;;21.98;9.82;;;;;;;12.10;80.22;99061.44;5088931;28;20043;-92
2022/05/09 01:19:13;;;;;;;23.92;9.55;;;;;;;11.85;81.42;99044.34;5090238;28;20436;-93
2022/05/09 01:21:41;;;;;;;21.70;10.40;;;;;;;11.74;82.77;99049.09;5089010;28;20041;-91
2022/05/09 01:24:15;;;;;;;23.13;9.60;;;;;;;11.86;83.19;99080.72;5088120;28;20486;-90
2022/05/09 01:26:41;;;;;;;22.98;9.25;;;;;;;11.79;83.17;99079.13;5089049;28;20051;-91
2022/05/09 01:29:15;;;;;;;23.20;8.73;;;;;;;11.72;84.21;99079.31;5088653;28;20044;-91
2022/05/09 01:31:42;;;;;;;23.05;10.30;;;;;;;11.69;84.28;99076.72;5088299;28;20044;-92
2022/05/09 01:34:10;;;;;;;26.42;9.63;;;;;;;11.52;84.20;99069.19;5088666;28;20036;-93
2022/05/09 01:36:38;;;;;;;21.40;9.45;;;;;;;11.60;85.29;99089.41;5088858;28;20067;-91
2022/05/09 01:39:08;;;;;;;24.25;10.38;;;;;;;11.43;84.72;99065.91;5088575;28;20043;-90
2022/05/09 01:41:38;;;;;;;25.33;10.35;;;;;;;11.52;86.14;99103.81;5088826;28;20037;-92
2022/05/09 01:44:05;;;;;;;24.77;10.05;;;;;;;11.42;86.21;99080.97;5089046;28;20052;-92
2022/05/09 01:46:32;;;;;;;21.58;9.55;;;;;;;11.52;85.64;99087.81;5087275;28;20082;-94
2022/05/09 01:49:34;;;;;;;20.67;10.50;;;;;;;11.44;86.08;99070.28;5088179;28;20055;-90
2022/05/09 01:51:46;;;;;;;22.73;9.85;;;;;;;11.64;84.91;99086.63;5087786;28;20139;-93
2022/05/09 01:54:15;;;;;;;25.05;9.75;;;;;;;11.82;84.31;99090.59;5082521;28;20066;-92
2022/05/09 01:56:41;;;;;;;26.83;10.63;;;;;;;12.24;81.50;99077.00;5074426;28;20052;-90
2022/05/09 01:59:09;;;;;;;21.80;9.75;;;;;;;12.57;79.75;99089.41;5074920;28;20037;-92
2022/05/09 02:01:37;;;;;;;26.95;10.52;;;;;;;12.66;79.21;99081.13;5074934;28;20040;-92
2022/05/09 02:04:04;;;;;;;21.95;9.75;;;;;;;12.69;78.72;99086.38;5073934;28;20040;-93
2022/05/09 02:06:30;;;;;;;22.70;9.65;;;;;;;12.67;79.55;99082.88;5075026;28;20060;-92
2022/05/09 02:08:55;;;;;;;25.35;10.68;;;;;;;12.55;79.94;99086.78;5075161;28;20075;-92
2022/05/09 02:11:22;;;;;;;23.13;10.05;;;;;;;12.49;80.31;99087.84;5074694;28;20052;-92
2022/05/09 02:13:48;;;;;;;22.20;11.05;;;;;;;12.42;80.69;99080.94;5075343;28;20064;-91
2022/05/09 02:16:14;;;;;;;27.90;9.35;;;;;;;12.19;80.92;99062.06;5074682;28;20415;-92
2022/05/09 02:18:40;;;;;;;26.60;9.85;;;;;;;12.18;82.18;99084.31;5074382;28;20474;-93
2022/05/09 02:21:06;;;;;;;21.55;9.70;;;;;;;12.11;82.33;99083.63;5074511;28;20139;-92
2022/05/09 02:23:33;;;;;;;24.83;9.30;;;;;;;12.04;82.07;99071.38;5074740;28;20056;-92
2022/05/09 02:25:59;;;;;;;19.75;9.55;;;;;;;11.97;82.02;99067.13;5074922;28;20040;-92
2022/05/09 02:28:26;;;;;;;22.10;9.05;;;;;;;11.87;83.19;99079.81;5074788;28;20045;-89
2022/05/09 02:30:52;;;;;;;23.63;9.45;;;;;;;11.81;83.11;99071.97;5074225;28;20442;-93
2022/05/09 02:33:18;;;;;;;24.98;8.98;;;;;;;11.81;82.35;99064.84;5074348;28;20136;-92
2022/05/09 02:35:44;;;;;;;24.83;10.48;;;;;;;11.77;83.97;99076.50;5073921;28;20150;-93
2022/05/09 02:38:11;;;;;;;22.30;10.50;;;;;;;11.79;83.96;99090.66;5073810;28;20059;-90
2022/05/09 02:40:36;;;;;;;20.15;10.55;;;;;;;12.08;81.51;99086.38;5073911;28;20036;-93
2022/05/09 02:43:03;;;;;;;21.00;10.55;;;;;;;12.25;80.73;99094.78;5073124;28;20059;-92
2022/05/09 02:45:30;;;;;;;22.52;9.88;;;;;;;12.25;80.33;99092.09;5073468;28;20386;-91
2022/05/09 02:47:57;;;;;;;20.95;10.15;;;;;;;12.25;80.08;99086.78;5073496;28;20142;-91
2022/05/09 02:50:24;;;;;;;19.10;9.75;;;;;;;12.15;80.06;99071.09;5073883;28;20045;-92
2022/05/09 02:52:51;;;;;;;25.50;10.75;;;;;;;12.24;79.89;99077.00;5073862;28;20045;-91
2022/05/09 02:55:18;;;;;;;27.38;9.98;;;;;;;12.31;80.19;99099.03;5073238;28;20039;-91
2022/05/09 02:57:44;;;;;;;21.75;10.43;;;;;;;12.38;79.30;99075.72;5074651;28;20032;-92
2022/05/09 03:00:13;;;;;;;23.45;10.35;;;;;;;12.56;78.65;99093.00;5073956;28;20428;-91
2022/05/09 03:02:41;;;;;;;23.63;10.07;;;;;;;12.44;78.87;99078.22;5073349;28;20033;-92
2022/05/09 03:05:07;;;;;;;23.55;9.85;;;;;;;12.37;79.48;99077.53;5072986;28;20072;-92
2022/05/09 03:07:34;;;;;;;26.88;10.48;;;;;;;12.44;79.95;99099.56;5072220;28;20037;-91
2022/05/09 03:10:00;;;;;;;23.90;11.77;;;;;;;12.36;79.68;99086.47;5073896;28;20040;-92
2022/05/09 03:12:26;;;;;;;21.38;10.98;;;;;;;12.35;79.64;99087.38;5073846;28;20032;-94
2022/05/09 03:14:52;;;;;;;29.63;11.88;;;;;;;12.32;79.51;99079.47;5074888;28;20036;-93
2022/05/09 03:17:18;;;;;;;22.23;11.27;;;;;;;12.33;79.63;99070.53;5074840;28;20036;-94
2022/05/09 03:19:45;;;;;;;22.55;10.57;;;;;;;12.31;79.63;99069.72;5075065;28;20123;-91
2022/05/09 03:22:11;;;;;;;23.17;10.68;;;;;;;12.48;79.60;99082.56;5073552;28;20052;-94
2022/05/09 03:24:37;;;;;;;28.77;12.65;;;;;;;12.42;80.10;99080.06;5074636;28;20037;-93
2022/05/09 03:27:04;;;;;;;26.27;12.65;;;;;;;12.47;81.14;99105.69;5073249;28;20535;-92
2022/05/09 03:29:30;;;;;;;23.83;11.13;;;;;;;12.42;80.61;99090.72;5073345;28;20053;-91
2022/05/09 03:31:56;;;;;;;24.70;12.85;;;;;;;12.46;80.95;99105.72;5072538;28;20067;-92
2022/05/09 03:34:22;;;;;;;26.85;11.70;;;;;;;12.52;81.03;99100.22;5073060;28;20041;-91
2022/05/09 03:36:52;;;;;;;26.13;12.02;;;;;;;12.49;81.20;99092.28;5072693;28;20040;-91
2022/05/09 03:39:17;;;;;;;;;;;;;;;12.52;81.70;99103.75;5072324;28;20060;-92
2022/05/09 03:41:43;;;;;;;24.63;11.20;;;;;;;12.38;82.02;99097.94;5072860;28;20342;-91
2022/05/09 03:44:09;;;;;;;24.25;11.25;;;;;;;12.35;83.29;99113.16;5072721;28;20090;-92
2022/05/09 03:46:35;;;;;;;26.48;12.75;;;;;;;12.27;83.33;99095.59;5073379;28;20032;-90
2022/05/09 03:49:00;;;;;;;26.25;12.95;;;;;;;12.29;83.23;99091.06;5073039;28;20051;-91
2022/05/09 03:51:26;;;;;;;29.40;13.18;;;;;;;12.22;83.38;99093.97;5072948;28;20049;-91
2022/05/09 03:53:54;;;;;;;23.33;12.05;;;;;;;12.29;82.47;99112.41;5072936;28;20036;-92
2022/05/09 03:56:19;;;;;;;30.80;13.10;;;;;;;12.28;82.65;99115.16;5073305;28;20032;-92
2022/05/09 03:58:45;;;;;;;26.48;12.00;;;;;;;12.22;83.00;99121.50;5072846;28;20082;-93
2022/05/09 04:01:11;;;;;;;26.83;13.07;;;;;;;12.12;83.31;99104.00;5072698;28;20040;-92
2022/05/09 04:03:38;;;;;;;24.42;12.27;;;;;;;12.34;82.25;99120.31;5073000;28;20051;-92
2022/05/09 04:06:04;;;;;;;27.92;12.95;;;;;;;12.32;82.25;99114.13;5072703;28;20044;-92
2022/05/09 04:08:30;;;;;;;29.52;12.90;;;;;;;12.43;81.72;99117.38;5072754;28;20143;-91
2022/05/09 04:10:58;;;;;;;25.73;12.68;;;;;;;12.50;81.86;99120.72;5072236;28;20047;-93
2022/05/09 04:13:23;;;;;;;29.23;12.57;;;;;;;12.51;81.82;99115.34;5072186;28;20086;-95
2022/05/09 04:18:52;;;;;;;24.25;12.52;;;;;;;12.48;81.95;99114.56;5108975;27;20729;-90
2022/05/09 04:21:17;;;;;;;27.17;12.05;;;;;;;12.55;81.33;99118.78;5110358;28;20048;-92
2022/05/09 04:23:45;;;;;;;26.05;11.93;;;;;;;12.46;81.29;99114.59;5109981;28;20085;-92
2022/05/09 04:26:12;;;;;;;25.42;12.50;;;;;;;12.41;82.32;99097.00;5109423;28;20036;-91
2022/05/09 04:28:38;;;;;;;26.67;12.85;;;;;;;12.62;82.12;99127.47;5110403;28;20044;-93
2022/05/09 04:31:04;;;;;;;26.05;13.43;;;;;;;12.65;82.06;99114.06;5109307;28;20451;-89
2022/05/09 04:33:30;;;;;;;24.38;12.10;;;;;;;12.78;80.89;99106.56;5110165;28;20390;-93
2022/05/09 04:35:58;;;;;;;25.92;12.73;;;;;;;12.88;80.98;99132.94;5109992;28;20050;-92
2022/05/09 04:38:24;;;;;;;26.27;12.10;;;;;;;12.79;80.44;99109.16;5109917;28;20043;-92
2022/05/09 04:40:51;;;;;;;30.00;13.65;;;;;;;12.94;80.23;99139.84;5110524;28;20035;-92
2022/05/09 04:43:19;;;;;;;27.95;12.60;;;;;;;12.88;80.74;99132.94;5110249;28;20051;-93
2022/05/09 04:45:45;;;;;;;25.13;13.00;;;;;;;12.90;80.68;99146.19;5109142;28;20032;-91
2022/05/09 04:48:10;;;;;;;28.75;13.18;;;;;;;12.90;80.35;99135.53;5110957;28;20036;-93
2022/05/09 04:50:36;;;;;;;25.63;13.13;;;;;;;12.90;80.05;99139.09;5110416;28;20048;-91
2022/05/09 04:53:04;;;;;;;32.65;15.55;;;;;;;12.81;80.28;99131.34;5103791;28;20039;-92
2022/05/09 04:55:29;;;;;;;33.90;14.00;;;;;;;12.89;80.12;99133.78;5109727;28;20725;-92
2022/05/09 04:57:56;;;;;;;27.83;13.20;;;;;;;12.99;80.38;99134.38;5109504;28;20047;-92
2022/05/09 05:00:25;;;;;;;25.27;12.57;;;;;;;13.06;80.19;99154.63;5110059;28;20397;-91
2022/05/09 05:02:52;;;;;;;32.22;13.68;;;;;;;13.13;79.42;99138.34;5109648;28;20452;-93
2022/05/09 05:05:18;;;;;;;23.02;12.25;;;;;;;13.58;77.50;99146.78;5109568;28;20039;-92
2022/05/09 05:07:43;;;;;;;28.20;12.88;;;;;;;13.81;76.32;99143.31;5110175;28;20044;-92
2022/05/09 05:10:12;;;;;;;26.00;11.85;;;;;;;14.25;75.29;99155.13;5109602;28;20497;-92
2022/05/09 05:12:38;;;;;;;26.90;13.05;;;;;;;14.42;74.03;99145.63;5109188;28;20051;-92
2022/05/09 05:15:05;;;;;;;23.45;12.15;;;;;;;14.72;73.76;99154.34;5109266;28;20036;-93
2022/05/09 05:17:31;;;;;;;25.60;12.52;;;;;;;14.94;72.45;99152.59;5109450;28;20115;-93
2022/05/09 05:19:56;;;;;;;27.33;12.57;;;;;;;14.78;72.45;99148.75;5109614;28;20046;-92
2022/05/09 05:22:22;;;;;;;30.67;12.23;;;;;;;14.83;72.26;99145.91;5108794;28;20363;-92
2022/05/09 05:24:52;;;;;;;24.63;12.15;;;;;;;14.99;71.56;99131.88;5109612;28;20035;-91
2022/05/09 05:27:21;;;;;;;26.55;12.60;;;;;;;14.79;72.26;99126.41;5108998;28;20123;-94
2022/05/09 05:29:49;;;;;;;24.90;12.93;;;;;;;14.92;73.20;99153.56;5096098;28;20044;-91
2022/05/09 05:32:16;;;;;;;23.52;12.10;;;;;;;14.79;72.71;99138.00;5096094;28;20044;-92
2022/05/09 05:34:42;;;;;;;22.50;12.20;;;;;;;15.05;72.99;99153.97;5095625;28;20036;-92
2022/05/09 05:37:10;;;;;;;26.00;12.70;;;;;;;15.33;72.12;99157.31;5094293;28;20092;-93
2022/05/09 05:39:37;;;;;;;24.90;12.98;;;;;;;15.63;70.65;99151.63;5096659;28;20044;-93
2022/05/09 05:42:04;;;;;;;25.00;12.57;;;;;;;15.77;69.55;99132.31;5095515;28;20043;-93
2022/05/09 05:44:32;;;;;;;27.30;12.63;;;;;;;15.77;69.77;99151.09;5094762;28;20052;-92
2022/05/09 05:46:58;;;;;;;24.88;13.18;;;;;;;15.81;69.70;99156.25;5095219;28;20047;-93
2022/05/09 05:49:23;;;;;;;27.42;13.15;;;;;;;16.07;69.39;99167.69;5095217;28;20114;-93
2022/05/09 05:51:49;;;;;;;23.70;12.23;;;;;;;15.70;70.18;99158.50;5095493;28;20044;-92
2022/05/09 05:54:15;;;;;;;26.02;13.18;;;;;;;15.93;68.99;99157.53;5095163;28;20178;-92
2022/05/09 05:56:40;;;;;;;21.77;12.00;;;;;;;16.02;67.88;99137.47;5094709;28;20040;-91
2022/05/09 05:59:06;;;;;;;22.45;12.13;;;;;;;16.05;67.67;99158.84;5094754;28;20044;-93
2022/05/09 06:01:33;;;;;;;23.58;12.45;;;;;;;16.14;67.20;99171.84;5094686;28;20040;-93
2022/05/09 06:03:59;;;;;;;26.50;11.75;;;;;;;16.18;67.06;99152.00;5094757;28;20044;-91
2022/05/09 06:06:25;;;;;;;24.25;11.95;;;;;;;16.31;66.99;99144.28;5095672;28;20040;-92
2022/05/09 06:08:51;;;;;;;21.98;11.38;;;;;;;16.60;66.29;99159.06;5094798;28;20040;-92
2022/05/09 06:11:17;;;;;;;23.23;12.25;;;;;;;16.82;64.79;99172.41;5094619;28;20370;-91
2022/05/09 06:13:42;;;;;;;23.92;11.88;;;;;;;16.99;64.42;99154.63;5094597;28;20036;-91
2022/05/09 06:16:08;;;;;;;25.00;12.20;;;;;;;16.93;63.53;99150.41;5094514;28;20089;-89
2022/05/09 06:18:35;;;;;;;27.20;13.07;;;;;;;16.91;63.41;99138.84;5091759;28;20040;-89
2022/05/09 06:21:03;;;;;;;22.83;11.57;;;;;;;16.95;64.07;99161.09;5094103;28;20518;-90
2022/05/09 06:23:29;;;;;;;27.17;12.45;;;;;;;17.13;64.56;99153.97;5094999;28;20054;-92
2022/05/09 06:25:56;;;;;;;27.17;12.23;;;;;;;17.33;62.97;99159.28;5094135;28;20051;-91
2022/05/09 06:28:23;;;;;;;24.05;11.27;;;;;;;17.50;62.91;99161.16;5094235;28;20097;-91
2022/05/09 06:30:50;;;;;;;24.50;11.70;;;;;;;17.71;62.61;99161.88;5094672;28;20040;-91
2022/05/09 06:33:23;;;;;;;31.40;12.40;;;;;;;17.73;60.60;99157.28;5094332;28;20433;-91
2022/05/09 06:35:52;;;;;;;23.75;11.57;;;;;;;17.45;61.93;99172.09;5095865;28;20040;-92
2022/05/09 06:38:19;;;;;;;24.17;11.63;;;;;;;17.48;62.58;99175.59;5092700;28;20093;-91
2022/05/09 06:40:45;;;;;;;25.42;11.55;;;;;;;17.53;62.52;99169.03;5092244;28;20044;-90
2022/05/09 06:43:12;;;;;;;24.08;12.63;;;;;;;17.70;62.67;99168.22;5094085;28;20071;-90
2022/05/09 06:45:38;;;;;;;23.92;11.82;;;;;;;17.89;62.51;99170.91;5093453;28;20044;-91
2022/05/09 06:48:05;;;;;;;26.13;12.82;;;;;;;18.20;60.97;99163.94;5095204;28;20119;-92
2022/05/09 06:50:33;;;;;;;20.90;11.40;;;;;;;17.58;61.53;99176.88;5091619;28;20044;-90
2022/05/09 06:53:03;;;;;;;23.52;11.25;;;;;;;17.76;62.57;99172.41;5092500;28;20037;-91
2022/05/09 06:55:29;;;;;;;21.08;10.68;;;;;;;17.70;60.93;99165.53;5092801;28;20035;-91
2022/05/09 06:57:54;;;;;;;24.20;11.57;;;;;;;17.40;64.77;99167.91;5094025;28;20055;-90
2022/05/09 07:00:23;;;;;;;30.08;12.25;;;;;;;16.92;65.89;99172.84;5092378;28;20149;-90
2022/05/09 07:02:48;;;;;;;29.43;12.90;;;;;;;17.22;65.09;99169.69;5091002;28;20047;-93
2022/05/09 07:05:17;;;;;;;24.20;11.48;;;;;;;17.12;65.75;99176.44;5092474;28;20032;-91
2022/05/09 07:07:44;;;;;;;25.60;11.73;;;;;;;17.17;65.78;99175.25;5092517;28;20059;-90
2022/05/09 07:10:13;;;;;;;25.45;12.00;;;;;;;17.47;62.84;99171.16;5093621;28;20067;-92
2022/05/09 07:12:42;;;;;;;;;;;;;;;17.52;63.41;99180.75;5094247;28;20126;-91
2022/05/09 07:15:08;;;;;;;25.15;12.13;;;;;;;17.78;63.68;99174.09;5093674;28;19950;-91
2022/05/09 07:17:34;;;;;;;24.15;10.80;;;;;;;17.90;61.41;99177.13;5090796;28;20657;-90
2022/05/09 07:20:00;;;;;;;23.70;11.20;;;;;;;17.71;62.49;99153.81;5093415;28;20036;-91
2022/05/09 07:22:25;;;;;;;22.27;12.63;;;;;;;17.95;60.89;99153.56;5094410;28;20047;-93
2022/05/09 07:24:51;;;;;;;22.27;10.30;;;;;;;18.21;59.98;99146.81;5094638;28;20059;-95
2022/05/09 07:27:18;;;;;;;23.92;12.27;;;;;;;18.34;61.09;99150.59;5093439;28;20044;-92
2022/05/09 07:29:44;;;;;;;22.10;10.35;;;;;;;18.57;59.92;99152.09;5093767;28;20082;-92
2022/05/09 07:32:10;;;;;;;20.73;11.68;;;;;;;18.47;58.99;99158.91;5092900;28;20420;-91
2022/05/09 07:34:36;;;;;;;23.50;11.27;;;;;;;18.45;60.75;99169.78;5092616;28;20558;-93
2022/05/09 07:37:01;;;;;;;28.75;11.45;;;;;;;18.66;58.69;99158.78;5093754;28;20036;-91
2022/05/09 07:39:27;;;;;;;22.08;10.60;;;;;;;19.03;59.02;99154.13;5093234;28;20064;-94
2022/05/09 07:41:53;;;;;;;20.52;10.93;;;;;;;19.28;58.31;99145.53;5093960;28;20373;-92
2022/05/09 07:44:20;;;;;;;23.13;11.30;;;;;;;19.60;57.37;99159.84;5093307;28;20067;-91
2022/05/09 07:46:46;;;;;;;24.60;10.77;;;;;;;19.77;54.42;99152.63;5093344;28;20071;-90
2022/05/09 07:49:12;;;;;;;19.25;10.10;;;;;;;19.60;54.25;99146.34;5092942;28;20431;-93
2022/05/09 07:51:38;;;;;;;24.17;12.20;;;;;;;18.89;56.75;99154.91;5092986;28;20416;-90
2022/05/09 07:54:05;;;;;;;21.02;10.80;;;;;;;19.04;58.65;99162.13;5092525;28;20040;-89
2022/05/09 07:56:31;;;;;;;20.00;10.57;;;;;;;19.46;56.82;99165.19;5092707;28;20040;-94
2022/05/09 07:58:56;;;;;;;22.67;10.25;;;;;;;19.82;54.93;99164.03;5092826;28;20046;-93
2022/05/09 08:01:23;;;;;;;17.55;9.55;;;;;;;19.83;52.76;99161.25;5092695;28;20044;-92
2022/05/09 08:03:49;;;;;;;18.42;10.25;;;;;;;19.98;52.35;99153.22;5093072;28;20058;-92
2022/05/09 08:06:15;;;;;;;20.52;9.55;;;;;;;20.42;52.57;99146.94;5093472;28;20056;-94
2022/05/09 08:08:43;;;;;;;18.10;9.25;;;;;;;20.44;50.05;99169.31;5094192;28;20068;-92
2022/05/09 08:11:13;;;;;;;14.45;8.30;;;;;;;20.21;49.58;99159.91;5092278;28;20036;-93
2022/05/09 08:13:48;;;;;;;20.77;9.45;;;;;;;19.95;50.40;99156.06;5093190;28;20074;-93
2022/05/09 08:16:15;;;;;;;23.20;9.65;;;;;;;20.16;50.38;99179.09;5089026;28;20040;-92
2022/05/09 08:18:42;;;;;;;15.40;9.15;;;;;;;19.96;50.41;99144.34;5090969;28;20048;-93
2022/05/09 08:21:09;;;;;;;19.27;9.07;;;;;;;20.47;50.19;99156.50;5092451;28;20043;-91
2022/05/09 08:23:35;;;;;;;20.38;9.63;;;;;;;20.55;49.25;99152.47;5089635;28;20036;-91
2022/05/09 08:26:03;;;;;;;21.85;9.18;;;;;;;20.58;48.98;99146.88;5091080;28;20082;-91
2022/05/09 08:28:29;;;;;;;19.70;8.75;;;;;;;20.26;48.99;99136.22;5089870;28;20051;-93
2022/05/09 08:30:55;;;;;;;19.13;8.95;;;;;;;20.47;47.28;99161.03;5091679;28;20385;-94
2022/05/09 08:33:23;;;;;;;21.27;9.40;;;;;;;20.65;49.40;99143.72;5092196;28;20051;-93
2022/05/09 08:35:53;;;;;;;17.17;8.35;;;;;;;21.02;48.70;99143.22;5090319;28;20066;-91
2022/05/09 08:38:19;;;;;;;14.50;8.35;;;;;;;20.91;48.30;99144.78;5090709;28;20063;-92
2022/05/09 08:41:07;;;;;;;16.17;8.80;;;;;;;21.24;48.07;99162.50;5093870;28;20046;-93
2022/05/09 08:43:50;;;;;;;22.33;9.15;;;;;;;21.10;47.80;99149.00;5090003;28;20047;-93
2022/05/09 08:46:22;;;;;;;17.80;9.07;;;;;;;20.52;49.02;99142.72;5091522;28;20122;-91
2022/05/09 08:49:02;;;;;;;18.55;9.00;;;;;;;20.58;48.88;99139.66;5091488;28;20036;-90
2022/05/09 08:51:41;;;;;;;19.88;9.02;;;;;;;20.78;49.45;99141.13;5091232;28;20036;-91
2022/05/09 08:54:14;;;;;;;19.58;9.15;;;;;;;21.12;47.93;99128.13;5092196;28;20458;-93
2022/05/09 08:56:44;;;;;;;17.23;8.60;;;;;;;21.43;48.89;99129.75;5092641;28;20124;-92
2022/05/09 08:59:13;;;;;;;19.38;9.13;;;;;;;21.18;48.51;99160.19;5092211;28;20055;-90
2022/05/09 09:01:44;;;;;;;18.08;9.57;;;;;;;21.45;47.98;99135.06;5088773;28;20042;-93
2022/05/09 09:04:19;;;;;;;22.60;8.52;;;;;;;21.76;46.26;99142.00;5094511;28;20490;-92
2022/05/09 09:07:03;;;;;;;19.55;9.02;;;;;;;22.08;45.56;99147.06;5096292;28;20385;-93
2022/05/09 09:09:51;;;;;;;13.75;8.10;;;;;;;21.84;46.66;99146.88;5095611;28;20093;-92
2022/05/09 09:12:28;;;;;;;14.13;7.32;;;;;;;22.05;43.43;99155.41;5096000;28;20486;-93
2022/05/09 09:15:02;;;;;;;15.20;7.53;;;;;;;21.97;42.50;99144.22;5093143;28;20046;-91
2022/05/09 09:17:47;;;;;;;18.65;8.23;;;;;;;22.35;43.68;99156.03;5096237;28;20505;-94
2022/05/09 09:20:18;;;;;;;16.65;8.10;;;;;;;22.24;42.81;99144.22;5093757;28;20040;-92
2022/05/09 09:23:05;;;;;;;16.77;7.70;;;;;;;21.91;42.90;99149.09;5094250;28;20405;-92
2022/05/09 09:25:41;;;;;;;15.77;7.15;;;;;;;22.05;41.75;99152.69;5096014;28;20135;-94
2022/05/09 09:28:11;;;;;;;14.82;7.80;;;;;;;22.33;43.09;99146.25;5097126;28;20070;-93
2022/05/09 09:30:38;;;;;;;15.07;7.05;;;;;;;22.33;41.09;99138.13;5091029;28;20105;-93
2022/05/09 09:33:06;;;;;;;18.15;8.18;;;;;;;22.62;43.79;99146.94;5096141;28;20131;-93
2022/05/09 09:35:44;;;;;;;13.73;6.57;;;;;;;22.41;39.66;99157.44;5095602;28;20047;-92
2022/05/09 09:38:20;;;;;;;17.40;6.65;;;;;;;22.43;38.91;99162.78;5095332;28;20040;-91
2022/05/09 09:40:46;;;;;;;16.67;7.00;;;;;;;22.65;38.96;99154.00;5093607;28;20040;-93
2022/05/09 09:43:16;;;;;;;16.35;6.85;;;;;;;22.41;38.00;99162.00;5096324;28;20078;-90
2022/05/09 09:45:46;;;;;;;11.73;6.78;;;;;;;22.10;38.99;99135.16;5095696;28;20040;-93
2022/05/09 09:48:14;;;;;;;15.70;6.90;;;;;;;22.43;37.61;99149.22;5096606;28;20040;-93
2022/05/09 09:50:56;;;;;;;10.00;6.37;;;;;;;22.71;38.85;99161.69;5095943;28;20059;-91
2022/05/09 09:53:35;;;;;;;13.15;6.47;;;;;;;22.85;38.03;99160.69;5094642;28;20288;-92
2022/05/09 09:56:05;;;;;;;13.35;7.25;;;;;;;22.55;39.71;99141.09;5095965;28;20036;-91
2022/05/09 09:58:31;;;;;;;15.50;6.35;;;;;;;22.92;38.85;99140.28;5095664;28;20131;-93
2022/05/09 10:01:04;;;;;;;16.10;6.65;;;;;;;22.48;39.34;99155.16;5095749;28;20043;-92
2022/05/09 10:03:32;;;;;;;12.60;6.38;;;;;;;22.82;37.59;99152.81;5095409;28;20039;-93
2022/05/09 10:05:58;;;;;;;14.82;6.03;;;;;;;22.71;37.57;99131.88;5095517;28;20050;-91
2022/05/09 10:08:30;;;;;;;15.55;6.60;;;;;;;22.81;37.82;99141.06;5095523;28;20047;-94
2022/05/09 10:11:05;;;;;;;11.63;6.32;;;;;;;22.85;36.97;99136.28;5095550;28;20044;-93
2022/05/09 10:13:37;;;;;;;13.52;5.90;;;;;;;22.87;36.76;99139.78;5095796;28;20101;-93
2022/05/09 10:16:05;;;;;;;15.20;6.22;;;;;;;22.34;37.83;99142.59;5095596;28;20054;-92
2022/05/09 10:18:33;;;;;;;15.45;6.05;;;;;;;21.97;38.78;99144.22;5094858;28;20197;-91
2022/05/09 10:21:01;;;;;;;9.05;5.57;;;;;;;22.08;38.39;99136.25;5095447;28;20086;-93
2022/05/09 10:26:28;;;;;;;12.70;6.07;;;;;;;22.90;37.34;99134.13;5132316;27;20233;-94
2022/05/09 10:28:56;;;;;;;11.85;6.38;;;;;;;23.12;37.58;99123.50;5128785;28;20100;-94
2022/05/09 10:31:27;;;;;;;10.95;5.97;;;;;;;23.22;36.94;99122.81;5134072;27;20561;-93
2022/05/09 10:34:00;;;;;;;11.45;5.63;;;;;;;23.23;36.83;99129.97;5131908;27;20051;-93
2022/05/09 10:36:30;;;;;;;12.18;5.88;;;;;;;23.38;36.13;99135.13;5130293;28;20050;-93
2022/05/09 10:39:01;;;;;;;12.55;5.72;;;;;;;23.36;35.57;99109.09;5132223;27;20046;-93
2022/05/09 10:41:34;;;;;;;11.25;5.63;;;;;;;23.27;35.75;99131.47;5125445;28;20047;-92
2022/05/09 10:44:07;;;;;;;13.98;5.90;;;;;;;23.50;36.07;99117.06;5132248;27;20043;-92
2022/05/09 10:46:40;;;;;;;11.57;5.72;;;;;;;23.12;36.33;99128.91;5131568;28;20043;-94
2022/05/09 10:49:13;;;;;;;12.73;6.10;;;;;;;23.32;36.25;99116.59;5130732;28;20040;-93
2022/05/09 10:51:51;;;;;;;10.18;6.45;;;;;;;23.48;37.60;99137.16;5131352;27;20039;-93
2022/05/09 10:54:22;;;;;;;12.73;5.90;;;;;;;23.64;37.07;99129.59;5131710;27;20407;-91
2022/05/09 10:56:58;;;;;;;8.52;6.07;;;;;;;23.80;35.72;99120.34;5132338;27;20093;-92
2022/05/09 10:59:26;;;;;;;13.48;6.43;;;;;;;23.61;36.76;99107.25;5130862;28;20085;-93
2022/05/09 11:02:00;;;;;;;10.97;5.77;;;;;;;23.81;36.72;99101.19;5131849;27;20035;-93
2022/05/09 11:04:27;;;;;;;10.30;5.70;;;;;;;24.17;35.88;99115.66;5131446;27;20040;-92
2022/05/09 11:07:04;;;;;;;11.82;5.85;;;;;;;24.27;34.54;99108.50;5131512;27;20043;-94
2022/05/09 11:09:52;;;;;;;9.02;6.05;;;;;;;24.28;35.39;99112.94;5128871;28;20484;-92
2022/05/09 11:12:37;;;;;;;10.43;6.07;;;;;;;24.43;34.64;99099.16;5131054;27;20042;-91
2022/05/09 11:15:14;;;;;;;11.77;5.85;;;;;;;24.51;33.84;99099.44;5131334;27;20036;-91
2022/05/09 11:17:55;;;;;;;10.68;5.95;;;;;;;24.14;32.95;99083.28;5129182;28;20096;-91
2022/05/09 11:20:30;;;;;;;11.30;6.03;;;;;;;23.88;34.44;99083.44;5127881;28;20047;-93
2022/05/09 11:23:20;;;;;;;14.48;5.82;;;;;;;23.69;34.60;99107.53;5131296;27;20522;-91
2022/05/09 11:26:00;;;;;;;12.10;6.07;;;;;;;23.45;35.65;99121.97;5130096;28;20047;-91
2022/05/09 11:28:45;;;;;;;9.18;5.53;;;;;;;23.62;35.91;99088.13;5129877;28;20396;-93
2022/05/09 11:31:21;;;;;;;10.30;5.40;;;;;;;24.02;34.24;99081.50;5133696;27;20039;-92
2022/05/09 11:34:01;;;;;;;11.55;6.65;;;;;;;23.42;35.40;99099.59;5127493;28;20039;-93
2022/05/09 11:36:50;;;;;;;9.52;5.70;;;;;;;23.63;34.23;99091.72;5124189;27;20075;-95
2022/05/09 11:39:24;;;;;;;15.50;6.18;;;;;;;23.16;35.88;99080.69;5118428;28;20048;-92